Flight Briefing for GRZ521

Departure Arrival
Adak Airport (PADK)
Click to view FAA NOTAMS
Ted Stevens Anchorage International Airport (PANC)
Click to view FAA NOTAMS
Departure Time Arrival Time
N/A N/A
Aircraft Distance
B727-200F 1036nm
Departure METAR Arrival METAR
PADK 250256Z AUTO 01016G23KT 9SM BKN010 OVC015 05/03 A3004 RMK AO2 CIG 008V013 SLP172 T00500033 56011 PANC 250253Z 33005KT 10SM FEW050 SCT060 SCT120 16/05 A3018 RMK AO2 SLP222 T01610050 58013
Suggested Route
ADK028021 SIYNY G8 AUB STREW V456 TUCKS AMOTT4


View recent IFR Routes data
Notes



Charts and Procedures

Charts for PADK
No chart available
Charts for PANC
No chart available

Windy.com Weather Map